createdAt,value
2023-05-25T00:02:05.041Z,98098.78
2023-05-25T00:04:34.676Z,98101.28
2023-05-25T00:07:03.127Z,98110.50
2023-05-25T00:09:31.729Z,98115.66
2023-05-25T00:12:00.987Z,98108.59
2023-05-25T00:14:31.322Z,98103.28
2023-05-25T00:17:04.343Z,98092.56
2023-05-25T00:19:34.663Z,98106.59
2023-05-25T00:22:03.355Z,98092.81
2023-05-25T00:24:32.615Z,98084.19
2023-05-25T00:27:01.511Z,98093.03
2023-05-25T00:29:29.916Z,98081.50
2023-05-25T00:31:58.430Z,98094.22
2023-05-25T00:34:27.750Z,98094.75
2023-05-25T00:36:56.389Z,98064.84
2023-05-25T00:39:25.116Z,98082.41
2023-05-25T00:41:53.372Z,98091.56
2023-05-25T00:44:22.474Z,98084.53
2023-05-25T00:46:52.770Z,98081.59
2023-05-25T00:49:23.506Z,98069.72
2023-05-25T00:51:54.277Z,98065.19
2023-05-25T00:54:22.706Z,98084.28
2023-05-25T00:56:53.817Z,98084.03
2023-05-25T00:59:35.818Z,98086.50
2023-05-25T01:02:07.020Z,98089.19
2023-05-25T01:04:37.157Z,98093.22
2023-05-25T01:07:10.110Z,98088.38
2023-05-25T01:09:40.857Z,98085.69
2023-05-25T01:12:11.904Z,98088.91
2023-05-25T01:14:40.875Z,98092.44
2023-05-25T01:17:10.790Z,98079.47
2023-05-25T01:19:41.556Z,98085.69
2023-05-25T01:22:20.347Z,98091.88
2023-05-25T01:24:52.853Z,98081.38
2023-05-25T01:27:28.519Z,98087.03
2023-05-25T01:29:58.835Z,98091.91
2023-05-25T01:32:29.322Z,98095.13
2023-05-25T01:35:00.807Z,98086.75
2023-05-25T01:37:32.008Z,98087.31
2023-05-25T01:40:00.195Z,98091.63
2023-05-25T01:42:28.159Z,98088.13
2023-05-25T01:44:56.939Z,98093.53
2023-05-25T01:47:30.326Z,98090.00
2023-05-25T01:50:05.090Z,98081.91
2023-05-25T01:52:39.405Z,98079.75
2023-05-25T01:55:12.007Z,98083.81
2023-05-25T01:57:44.277Z,98090.53
2023-05-25T02:00:15.259Z,98094.03
2023-05-25T02:02:45.508Z,98086.78
2023-05-25T02:05:13.869Z,98078.38
2023-05-25T02:07:43.994Z,98080.53
2023-05-25T02:10:12.408Z,98084.56
2023-05-25T02:12:40.782Z,98089.16
2023-05-25T02:15:11.266Z,98093.47
2023-05-25T02:17:39.568Z,98091.84
2023-05-25T02:20:11.714Z,98078.88
2023-05-25T02:22:39.890Z,98073.75
2023-05-25T02:25:10.332Z,98102.63
2023-05-25T02:27:39.075Z,98092.31
2023-05-25T02:30:09.388Z,98098.81
2023-05-25T02:32:37.689Z,98102.34
2023-05-25T02:35:06.988Z,98091.00
2023-05-25T02:37:35.327Z,98106.91
2023-05-25T02:40:04.040Z,98084.25
2023-05-25T02:42:34.031Z,98082.91
2023-05-25T02:45:02.393Z,98100.19
2023-05-25T02:47:31.264Z,98090.47
2023-05-25T02:49:59.475Z,98097.41
2023-05-25T02:52:28.423Z,98091.25
2023-05-25T02:54:56.602Z,98090.72
2023-05-25T02:57:25.294Z,98091.00
2023-05-25T02:59:55.213Z,98091.25
2023-05-25T03:02:26.043Z,98075.56
2023-05-25T03:04:54.797Z,98072.34
2023-05-25T03:07:23.238Z,98105.81
2023-05-25T03:09:52.333Z,98109.59
2023-05-25T03:12:20.672Z,98111.75
2023-05-25T03:14:49.803Z,98118.78
2023-05-25T03:17:20.306Z,98110.13
2023-05-25T03:19:48.837Z,98127.94
2023-05-25T03:22:17.260Z,98117.47
2023-05-25T03:24:47.221Z,98114.78
2023-05-25T03:27:15.657Z,98123.41
2023-05-25T03:29:43.886Z,98112.09
2023-05-25T03:32:12.439Z,98108.31
2023-05-25T03:34:42.056Z,98111.59
2023-05-25T03:37:10.238Z,98123.47
2023-05-25T03:39:38.986Z,98127.78
2023-05-25T03:42:07.788Z,98123.16
2023-05-25T03:44:36.366Z,98121.25
2023-05-25T03:47:05.249Z,98133.16
2023-05-25T03:49:34.134Z,98143.91
2023-05-25T03:52:03.859Z,98152.41
2023-05-25T03:54:32.530Z,98133.16
2023-05-25T03:57:00.816Z,98140.22
2023-05-25T03:59:29.132Z,98144.22
2023-05-25T04:01:58.229Z,98134.03
2023-05-25T04:04:28.358Z,98150.19
2023-05-25T04:06:57.145Z,98153.66
2023-05-25T04:09:27.106Z,98135.09
2023-05-25T04:11:56.029Z,98152.94
2023-05-25T04:14:24.490Z,98154.13
2023-05-25T04:16:54.002Z,98169.03
2023-05-25T04:19:22.868Z,98167.56
2023-05-25T04:21:51.243Z,98178.22
2023-05-25T04:24:20.104Z,98216.19
2023-05-25T04:26:52.178Z,98193.13
2023-05-25T04:29:21.415Z,98215.97
2023-05-25T04:31:49.813Z,98250.13
2023-05-25T04:34:22.219Z,98253.69
2023-05-25T04:36:50.895Z,98262.63
2023-05-25T04:39:19.233Z,98243.56
2023-05-25T04:41:50.480Z,98232.06
2023-05-25T04:44:20.187Z,98268.19
2023-05-25T04:46:50.292Z,98310.06
2023-05-25T04:49:20.584Z,98289.31
2023-05-25T04:51:49.927Z,98318.84
2023-05-25T04:54:18.416Z,98318.16
2023-05-25T04:56:47.498Z,98306.50
2023-05-25T04:59:21.109Z,98304.38
2023-05-25T05:01:50.955Z,98316.19
2023-05-25T05:04:20.129Z,98339.91
2023-05-25T05:06:49.003Z,98287.47
2023-05-25T05:09:18.605Z,98301.19
2023-05-25T05:11:47.349Z,98339.06
2023-05-25T05:14:17.430Z,98320.78
2023-05-25T05:16:49.543Z,98380.81
2023-05-25T05:19:19.809Z,98368.34
2023-05-25T05:21:49.000Z,98392.94
2023-05-25T05:24:18.313Z,98372.00
2023-05-25T05:26:57.350Z,98421.69
2023-05-25T05:29:29.817Z,98421.69
2023-05-25T05:31:58.560Z,98423.19
2023-05-25T05:34:27.357Z,98412.41
2023-05-25T05:36:58.818Z,98430.81
2023-05-25T05:39:28.845Z,98474.72
2023-05-25T05:41:58.560Z,98478.31
2023-05-25T05:44:29.512Z,98480.69
2023-05-25T05:47:01.563Z,98460.31
2023-05-25T05:49:31.388Z,98509.00
2023-05-25T05:52:01.102Z,98448.63
2023-05-25T05:54:29.838Z,98472.59
2023-05-25T05:56:58.681Z,98450.13
2023-05-25T05:59:29.496Z,98480.06
2023-05-25T06:01:57.936Z,98483.72
2023-05-25T06:04:29.182Z,98561.84
2023-05-25T06:07:00.078Z,98477.94
2023-05-25T06:09:28.449Z,98469.69
2023-05-25T06:11:56.876Z,98516.19
2023-05-25T06:14:28.128Z,98537.97
2023-05-25T06:16:58.930Z,98503.41
2023-05-25T06:19:28.391Z,98537.44
2023-05-25T06:21:57.145Z,98489.84
2023-05-25T06:24:26.085Z,98478.53
2023-05-25T06:26:55.326Z,98512.56
2023-05-25T06:29:25.616Z,98569.75
2023-05-25T06:31:55.246Z,98560.88
2023-05-25T06:34:26.196Z,98497.47
2023-05-25T06:36:55.520Z,98493.88
2023-05-25T06:39:24.565Z,98515.50
2023-05-25T06:41:54.449Z,98466.25
2023-05-25T06:44:24.041Z,98544.44
2023-05-25T06:46:53.065Z,98548.75
2023-05-25T06:49:22.083Z,98580.16
2023-05-25T06:51:53.216Z,98538.13
2023-05-25T06:54:24.409Z,98590.75
2023-05-25T06:56:54.118Z,98557.44
2023-05-25T06:59:23.452Z,98590.75
2023-05-25T07:01:53.135Z,98542.81
2023-05-25T07:04:23.276Z,98564.84
2023-05-25T07:06:53.866Z,98617.03
2023-05-25T07:09:23.364Z,98630.25
2023-05-25T07:11:52.333Z,98592.63
2023-05-25T07:14:21.089Z,98584.28
2023-05-25T07:16:53.048Z,98645.44
2023-05-25T07:19:22.082Z,98638.63
2023-05-25T07:21:51.244Z,98633.50
2023-05-25T07:24:21.977Z,98642.53
2023-05-25T07:26:50.393Z,98634.22
2023-05-25T07:29:19.362Z,98593.28
2023-05-25T07:31:48.948Z,98569.53
2023-05-25T07:34:18.568Z,98593.78
2023-05-25T07:36:50.521Z,98640.41
2023-05-25T07:39:21.996Z,98623.56
2023-05-25T07:41:51.184Z,98530.78
2023-05-25T07:44:21.096Z,98610.53
2023-05-25T07:46:50.955Z,98614.41
2023-05-25T07:49:32.354Z,98555.81
2023-05-25T07:52:11.298Z,98565.22
2023-05-25T07:55:07.627Z,98593.69
2023-05-25T07:57:43.215Z,98645.56
2023-05-25T08:00:21.619Z,98607.50
2023-05-25T08:03:12.471Z,98605.41
2023-05-25T08:05:42.040Z,98609.09
2023-05-25T08:08:11.070Z,98621.63
2023-05-25T08:10:41.360Z,98681.22
2023-05-25T08:13:23.878Z,98644.00
2023-05-25T08:16:03.781Z,98643.63
2023-05-25T08:18:32.890Z,98683.22
2023-05-25T08:21:01.230Z,98650.47
2023-05-25T08:23:29.683Z,98674.75
2023-05-25T08:26:01.349Z,98674.31
2023-05-25T08:28:29.832Z,98601.72
2023-05-25T08:30:58.870Z,98554.38
2023-05-25T08:33:28.000Z,98576.63
2023-05-25T08:35:57.172Z,98560.09
2023-05-25T08:38:26.680Z,98622.88
2023-05-25T08:41:06.828Z,98575.81
2023-05-25T08:43:36.452Z,98656.44
2023-05-25T08:46:07.689Z,98630.56
2023-05-25T08:48:42.382Z,98684.97
2023-05-25T08:51:15.006Z,98682.41
2023-05-25T08:53:47.876Z,98539.47
2023-05-25T08:56:20.698Z,98577.75
2023-05-25T08:58:55.794Z,98541.03
2023-05-25T09:01:26.660Z,98609.28
2023-05-25T09:03:57.811Z,98565.94
2023-05-25T09:06:28.609Z,98627.16
2023-05-25T09:08:57.419Z,98601.03
2023-05-25T09:11:38.867Z,98599.94
2023-05-25T09:14:09.217Z,98533.44
2023-05-25T09:16:40.091Z,98469.53
2023-05-25T09:19:09.245Z,98517.53
2023-05-25T09:21:39.044Z,98568.56
2023-05-25T09:24:08.671Z,98545.75
2023-05-25T09:26:39.831Z,98557.50
2023-05-25T09:29:08.794Z,98566.69
2023-05-25T09:31:38.919Z,98522.56
2023-05-25T09:34:14.586Z,98472.56
2023-05-25T09:36:43.635Z,98533.84
2023-05-25T09:39:13.280Z,98556.72
2023-05-25T09:41:45.147Z,98532.19
2023-05-25T09:44:15.685Z,98493.31
2023-05-25T09:46:45.584Z,98509.59
2023-05-25T09:49:14.400Z,98505.44
2023-05-25T09:51:43.578Z,98478.03
2023-05-25T09:54:13.598Z,98456.19
2023-05-25T09:56:45.441Z,98438.75
2023-05-25T09:59:14.766Z,98513.06
2023-05-25T10:01:44.757Z,98502.19
2023-05-25T10:04:18.125Z,98480.22
2023-05-25T10:06:51.353Z,98432.19
2023-05-25T10:09:21.935Z,98495.19
2023-05-25T10:11:55.211Z,98484.81
2023-05-25T10:14:29.301Z,98491.31
2023-05-25T10:17:01.791Z,98550.88
2023-05-25T10:19:35.309Z,98510.72
2023-05-25T10:22:10.907Z,98447.94
2023-05-25T10:24:46.196Z,98440.66
2023-05-25T10:27:27.912Z,98405.72
2023-05-25T10:29:59.502Z,98461.13
2023-05-25T10:32:31.797Z,98463.50
2023-05-25T10:35:03.880Z,98497.19
2023-05-25T10:37:34.710Z,98465.69
2023-05-25T10:40:04.499Z,98484.81
2023-05-25T10:42:37.310Z,98451.16
2023-05-25T10:45:08.156Z,98465.19
2023-05-25T10:47:38.932Z,98435.13
2023-05-25T10:50:20.130Z,98379.44
2023-05-25T10:53:00.065Z,98458.59
2023-05-25T10:55:32.727Z,98427.44
2023-05-25T10:58:15.257Z,98440.25
2023-05-25T11:00:45.625Z,98469.78
2023-05-25T11:03:14.645Z,98426.16
2023-05-25T11:05:44.156Z,98426.47
2023-05-25T11:08:18.030Z,98435.94
2023-05-25T11:10:54.993Z,98397.34
2023-05-25T11:13:41.558Z,98396.56
2023-05-25T11:16:23.002Z,98388.16
2023-05-25T11:18:54.923Z,98387.81
2023-05-25T11:21:42.796Z,98391.38
2023-05-25T11:24:20.347Z,98369.84
2023-05-25T11:26:58.485Z,98365.06
2023-05-25T11:29:33.790Z,98366.28
2023-05-25T11:32:03.124Z,98359.91
2023-05-25T11:34:34.226Z,98353.06
2023-05-25T11:37:04.211Z,98362.28
2023-05-25T11:39:33.123Z,98351.53
2023-05-25T11:42:05.997Z,98313.75
2023-05-25T11:44:39.963Z,98341.94
2023-05-25T11:47:14.293Z,98317.09
2023-05-25T11:49:46.252Z,98324.28
2023-05-25T11:52:16.773Z,98331.16
2023-05-25T11:54:46.099Z,98348.72
2023-05-25T11:57:19.171Z,98327.75
2023-05-25T11:59:54.889Z,98317.00
2023-05-25T12:02:25.446Z,98337.56
2023-05-25T12:04:58.707Z,98345.53
2023-05-25T12:07:28.964Z,98344.41
2023-05-25T12:10:10.947Z,98286.97
2023-05-25T12:12:43.629Z,98315.50
2023-05-25T12:15:17.205Z,98309.97
2023-05-25T12:17:49.585Z,98312.28
2023-05-25T12:20:19.965Z,98292.59
2023-05-25T12:22:49.358Z,98296.34
2023-05-25T12:25:22.222Z,98282.13
2023-05-25T12:27:51.469Z,98296.78
2023-05-25T12:30:30.729Z,98270.47
2023-05-25T12:33:04.531Z,98276.88
2023-05-25T12:35:48.311Z,98260.06
2023-05-25T12:38:18.942Z,98263.78
2023-05-25T12:40:48.181Z,98285.72
2023-05-25T12:43:18.107Z,98300.53
2023-05-25T12:45:48.802Z,98294.66
2023-05-25T12:48:19.901Z,98302.31
2023-05-25T12:51:02.227Z,98261.94
2023-05-25T12:53:31.919Z,98246.53
2023-05-25T12:56:03.981Z,98247.22
2023-05-25T12:58:33.477Z,98266.06
2023-05-25T13:01:04.260Z,98257.28
2023-05-25T13:03:33.934Z,98238.13
2023-05-25T13:06:03.859Z,98244.81
2023-05-25T13:08:32.867Z,98238.59
2023-05-25T13:11:04.532Z,98236.91
2023-05-25T13:13:34.320Z,98235.56
2023-05-25T13:16:05.954Z,98244.22
2023-05-25T13:18:35.416Z,98257.44
2023-05-25T13:21:06.470Z,98222.84
2023-05-25T13:23:36.412Z,98234.88
2023-05-25T13:26:05.201Z,98226.16
2023-05-25T13:28:34.464Z,98224.56
2023-05-25T13:31:04.519Z,98215.88
2023-05-25T13:33:32.929Z,98222.91
2023-05-25T13:36:08.670Z,98212.00
2023-05-25T13:38:38.366Z,98209.00
2023-05-25T13:41:07.269Z,98199.47
2023-05-25T13:43:36.795Z,98214.78
2023-05-25T13:48:36.303Z,98186.72
2023-05-25T13:51:05.688Z,98205.88
2023-05-25T13:53:34.297Z,98199.56
2023-05-25T13:56:03.096Z,98205.38
2023-05-25T13:58:33.767Z,98217.16
2023-05-25T14:01:03.031Z,98210.66
2023-05-25T14:03:34.501Z,98189.28
2023-05-25T14:06:03.733Z,98195.88
2023-05-25T14:08:33.166Z,98200.56
2023-05-25T14:11:04.397Z,98208.47
2023-05-25T14:13:33.724Z,98187.34
2023-05-25T14:16:03.593Z,98183.50
2023-05-25T14:18:35.569Z,98175.47
2023-05-25T14:21:04.858Z,98175.31
2023-05-25T14:23:34.265Z,98180.97
2023-05-25T14:26:03.774Z,98167.09
2023-05-25T14:28:32.457Z,98193.31
2023-05-25T14:31:02.039Z,98162.72
2023-05-25T14:33:30.964Z,98180.16
2023-05-25T14:36:01.694Z,98148.44
2023-05-25T14:38:30.602Z,98173.22
2023-05-25T14:40:59.243Z,98158.81
2023-05-25T14:43:28.337Z,98181.63
2023-05-25T14:45:57.109Z,98165.56
2023-05-25T14:48:26.301Z,98166.06
2023-05-25T14:50:55.447Z,98165.03
2023-05-25T14:53:25.513Z,98168.47
2023-05-25T14:55:54.449Z,98170.06
2023-05-25T14:58:23.746Z,98162.56
2023-05-25T15:00:52.370Z,98161.56
2023-05-25T15:03:21.324Z,98164.66
2023-05-25T15:05:50.516Z,98167.63
2023-05-25T15:08:19.041Z,98163.09
2023-05-25T15:10:49.712Z,98176.34
2023-05-25T15:13:18.863Z,98178.50
2023-05-25T15:15:47.687Z,98184.00
2023-05-25T15:18:16.684Z,98161.25
2023-05-25T15:20:45.251Z,98173.13
2023-05-25T15:23:13.956Z,98176.41
2023-05-25T15:25:43.012Z,98174.22
2023-05-25T15:28:13.573Z,98162.44
2023-05-25T15:30:43.020Z,98182.66
2023-05-25T15:33:11.549Z,98176.28
2023-05-25T15:35:39.846Z,98155.28
2023-05-25T15:38:08.871Z,98147.03
2023-05-25T15:40:38.072Z,98151.69
2023-05-25T15:43:07.000Z,98150.09
2023-05-25T15:45:37.649Z,98158.28
2023-05-25T15:48:09.534Z,98154.03
2023-05-25T15:50:40.263Z,98147.28
2023-05-25T15:53:08.980Z,98155.94
2023-05-25T15:55:37.698Z,98157.47
2023-05-25T15:58:06.781Z,98170.88
2023-05-25T16:00:37.050Z,98160.53
2023-05-25T16:03:06.159Z,98166.69
2023-05-25T16:05:35.142Z,98141.31
2023-05-25T16:08:06.316Z,98152.03
2023-05-25T16:10:34.890Z,98162.69
2023-05-25T16:13:04.158Z,98146.47
2023-05-25T16:15:33.426Z,98183.19
2023-05-25T16:18:03.539Z,98158.13
2023-05-25T16:20:32.240Z,98156.97
2023-05-25T16:23:00.844Z,98159.47
2023-05-25T16:25:30.160Z,98154.69
2023-05-25T16:27:58.766Z,98161.09
2023-05-25T16:30:27.574Z,98158.44
2023-05-25T16:32:57.013Z,98159.59
2023-05-25T16:35:26.997Z,98157.44
2023-05-25T16:37:57.110Z,98149.38
2023-05-25T16:40:26.201Z,98147.53
2023-05-25T16:42:54.766Z,98152.16
2023-05-25T16:45:24.288Z,98145.22
2023-05-25T16:47:53.202Z,98154.63
2023-05-25T16:50:22.287Z,98153.84
2023-05-25T16:52:58.450Z,98144.31
2023-05-25T16:55:27.645Z,98152.72
2023-05-25T16:57:56.124Z,98145.47
2023-05-25T17:00:24.988Z,98146.44
2023-05-25T17:02:53.870Z,98135.97
2023-05-25T17:05:22.734Z,98139.81
2023-05-25T17:07:51.875Z,98138.34
2023-05-25T17:10:22.611Z,98129.13
2023-05-25T17:12:52.221Z,98129.38
2023-05-25T17:15:21.074Z,98135.25
2023-05-25T17:17:51.587Z,98123.25
2023-05-25T17:20:20.415Z,98132.75
2023-05-25T17:22:50.558Z,98125.28
2023-05-25T17:25:19.432Z,98124.94
2023-05-25T17:27:50.092Z,98127.25
2023-05-25T17:30:19.917Z,98132.94
2023-05-25T17:32:49.146Z,98138.72
2023-05-25T17:35:17.904Z,98135.88
2023-05-25T17:37:47.313Z,98133.03
2023-05-25T17:40:19.006Z,98119.69
2023-05-25T17:42:50.468Z,98128.22
2023-05-25T17:45:22.355Z,98126.38
2023-05-25T17:47:52.178Z,98125.63
2023-05-25T17:50:21.736Z,98124.63
2023-05-25T17:52:50.535Z,98119.34
2023-05-25T17:55:21.432Z,98120.22
2023-05-25T17:57:51.333Z,98123.53
2023-05-25T18:00:23.552Z,98118.53
2023-05-25T18:02:52.271Z,98125.44
2023-05-25T18:05:20.989Z,98114.91
2023-05-25T18:07:50.297Z,98111.31
2023-05-25T18:10:18.859Z,98127.78
2023-05-25T18:12:50.306Z,98111.09
2023-05-25T18:15:20.378Z,98099.75
2023-05-25T18:17:48.920Z,98112.13
2023-05-25T18:20:17.717Z,98118.53
2023-05-25T18:22:46.350Z,98109.03
2023-05-25T18:25:14.687Z,98119.25
2023-05-25T18:27:43.793Z,98116.25
2023-05-25T18:30:13.085Z,98120.28
2023-05-25T18:32:43.293Z,98104.50
2023-05-25T18:35:12.911Z,98114.63
2023-05-25T18:37:41.429Z,98123.13
2023-05-25T18:40:13.460Z,98127.75
2023-05-25T18:42:42.133Z,98129.25
2023-05-25T18:45:11.588Z,98133.16
2023-05-25T18:47:40.693Z,98136.31
2023-05-25T18:50:12.442Z,98122.19
2023-05-25T18:52:42.625Z,98129.16
2023-05-25T18:55:11.509Z,98132.81
2023-05-25T18:57:40.245Z,98127.78
2023-05-25T19:00:11.394Z,98121.00
2023-05-25T19:02:43.176Z,98124.84
2023-05-25T19:05:15.386Z,98134.25
2023-05-25T19:07:58.523Z,98135.81
2023-05-25T19:10:29.069Z,98124.81
2023-05-25T19:12:58.055Z,98138.19
2023-05-25T19:15:26.545Z,98130.28
2023-05-25T19:17:55.357Z,98116.72
2023-05-25T19:20:28.345Z,98146.47
2023-05-25T19:22:57.806Z,98140.66
2023-05-25T19:25:26.416Z,98144.19
2023-05-25T19:27:55.208Z,98159.03
2023-05-25T19:30:24.171Z,98156.28
2023-05-25T19:32:54.073Z,98153.97
2023-05-25T19:35:23.869Z,98165.28
2023-05-25T19:37:53.853Z,98162.69
2023-05-25T19:40:22.536Z,98167.84
2023-05-25T19:42:51.062Z,98163.50
2023-05-25T19:45:19.990Z,98150.53
2023-05-25T19:47:48.726Z,98169.00
2023-05-25T19:50:18.361Z,98182.03
2023-05-25T19:52:46.932Z,98170.34
2023-05-25T19:55:16.570Z,98181.53
2023-05-25T19:57:45.942Z,98173.09
2023-05-25T20:00:25.309Z,98176.16
2023-05-25T20:02:55.858Z,98176.06
2023-05-25T20:05:24.843Z,98188.59
2023-05-25T20:07:53.265Z,98197.63
2023-05-25T20:10:23.819Z,98189.72
2023-05-25T20:12:52.334Z,98196.66
2023-05-25T20:15:21.233Z,98196.47
2023-05-25T20:17:50.156Z,98201.00
2023-05-25T20:20:18.852Z,98207.47
2023-05-25T20:22:47.663Z,98199.09
2023-05-25T20:25:16.424Z,98201.38
2023-05-25T20:27:46.605Z,98200.41
2023-05-25T20:30:17.642Z,98194.63
2023-05-25T20:32:46.219Z,98181.25
2023-05-25T20:35:15.113Z,98185.13
2023-05-25T20:37:44.450Z,98191.41
2023-05-25T20:40:12.909Z,98195.09
2023-05-25T20:42:41.163Z,98199.44
2023-05-25T20:45:12.314Z,98201.88
2023-05-25T20:47:41.427Z,98211.66
2023-05-25T20:50:10.330Z,98196.56
2023-05-25T20:52:39.426Z,98203.81
2023-05-25T20:55:08.853Z,98204.28
2023-05-25T20:57:37.935Z,98209.56
2023-05-25T21:00:07.115Z,98200.94
2023-05-25T21:02:36.987Z,98199.41
2023-05-25T21:05:06.520Z,98204.91
2023-05-25T21:07:35.060Z,98202.00
2023-05-25T21:10:04.354Z,98194.91
2023-05-25T21:12:33.381Z,98200.38
2023-05-25T21:15:01.899Z,98219.22
2023-05-25T21:17:30.942Z,98214.66
2023-05-25T21:20:01.671Z,98212.75
2023-05-25T21:22:30.195Z,98215.34
2023-05-25T21:24:59.644Z,98207.56
2023-05-25T21:27:29.020Z,98216.25
2023-05-25T21:29:57.470Z,98229.94
2023-05-25T21:32:25.917Z,98224.78
2023-05-25T21:34:55.773Z,98238.75
2023-05-25T21:37:26.173Z,98230.06
2023-05-25T21:39:55.107Z,98241.63
2023-05-25T21:42:24.201Z,98232.50
2023-05-25T21:44:52.981Z,98240.38
2023-05-25T21:47:21.707Z,98237.44
2023-05-25T21:49:51.362Z,98240.03
2023-05-25T21:52:20.282Z,98247.25
2023-05-25T21:54:49.992Z,98255.44
2023-05-25T21:57:19.271Z,98252.47
2023-05-25T21:59:47.608Z,98266.63
2023-05-25T22:02:15.997Z,98257.00
2023-05-25T22:04:45.093Z,98257.78
2023-05-25T22:07:13.514Z,98271.31
2023-05-25T22:09:41.922Z,98267.56
2023-05-25T22:12:13.941Z,98262.75
2023-05-25T22:14:42.363Z,98277.41
2023-05-25T22:17:10.682Z,98281.22
2023-05-25T22:19:39.644Z,98274.78
2023-05-25T22:22:08.493Z,98270.19
2023-05-25T22:24:37.044Z,98275.34
2023-05-25T22:27:06.659Z,98276.69
2023-05-25T22:29:37.021Z,98273.91
2023-05-25T22:32:06.108Z,98277.50
2023-05-25T22:34:35.994Z,98266.53
2023-05-25T22:37:06.191Z,98272.34
2023-05-25T22:39:34.768Z,98284.56
2023-05-25T22:42:04.004Z,98275.38
2023-05-25T22:44:32.550Z,98277.66
2023-05-25T22:47:02.642Z,98290.94
2023-05-25T22:49:31.588Z,98269.47
2023-05-25T22:52:01.967Z,98282.81
2023-05-25T22:54:30.762Z,98278.44
2023-05-25T22:56:59.548Z,98275.03
2023-05-25T22:59:27.921Z,98276.56
2023-05-25T23:01:56.503Z,98273.03
2023-05-25T23:04:27.722Z,98274.53
2023-05-25T23:06:56.733Z,98280.78
2023-05-25T23:09:25.173Z,98283.91
2023-05-25T23:11:54.178Z,98282.66
2023-05-25T23:14:22.464Z,98277.81
2023-05-25T23:16:51.339Z,98278.94
2023-05-25T23:19:19.967Z,98277.66
2023-05-25T23:21:50.033Z,98266.19
2023-05-25T23:24:19.004Z,98270.22
2023-05-25T23:26:48.576Z,98277.50
2023-05-25T23:29:17.325Z,98267.25
2023-05-25T23:31:46.231Z,98269.41
2023-05-25T23:34:14.744Z,98272.13
2023-05-25T23:36:43.861Z,98266.72
2023-05-25T23:39:14.662Z,98274.22
2023-05-25T23:41:42.876Z,98276.13
2023-05-25T23:44:12.435Z,98269.81
2023-05-25T23:46:40.891Z,98266.09
2023-05-25T23:49:11.370Z,98271.13
2023-05-25T23:51:39.603Z,98278.56
2023-05-25T23:54:08.191Z,98278.56
2023-05-25T23:56:39.649Z,98270.69
2023-05-25T23:59:09.434Z,98270.81
